createdAt,value
2017-11-09T07:11:35.400Z,57.00
2017-11-09T07:14:07.293Z,57.57
2017-11-09T07:16:39.990Z,50.90
2017-11-09T07:19:11.885Z,51.90
2017-11-09T07:21:43.787Z,57.47
2017-11-09T07:24:16.441Z,53.03
2017-11-09T07:26:48.317Z,55.70
2017-11-09T07:29:20.973Z,54.13
2017-11-09T07:31:52.853Z,51.60
2017-11-09T07:34:25.505Z,54.93
2017-11-09T07:36:57.378Z,56.10
2017-11-09T07:39:29.270Z,57.63
2017-11-09T07:42:01.141Z,54.80
2017-11-09T07:44:33.047Z,53.67
2017-11-09T07:47:04.921Z,52.97
2017-11-09T07:49:36.921Z,51.27
2017-11-09T07:52:08.800Z,50.90
2017-11-09T07:54:40.707Z,48.17
2017-11-09T07:57:12.581Z,51.73
2017-11-09T07:59:45.261Z,52.30
2017-11-09T08:02:17.922Z,42.77
2017-11-09T08:04:50.581Z,47.90
2017-11-09T08:07:22.697Z,46.97
2017-11-09T08:09:54.605Z,49.57
2017-11-09T08:12:26.480Z,48.07
2017-11-09T08:14:58.375Z,44.57
2017-11-09T08:17:30.253Z,41.47
2017-11-09T08:20:02.189Z,45.43
2017-11-09T08:22:34.842Z,45.53
2017-11-09T08:25:07.042Z,44.77
2017-11-09T08:27:42.124Z,47.63
2017-11-09T08:30:15.129Z,47.80
2017-11-09T08:32:50.188Z,47.50
2017-11-09T08:35:22.854Z,48.60
2017-11-09T08:37:54.740Z,46.43
2017-11-09T08:40:26.653Z,45.43
2017-11-09T08:42:58.542Z,48.07
2017-11-09T08:45:31.217Z,45.30
2017-11-09T08:48:03.857Z,43.40
2017-11-09T08:50:35.767Z,45.87
2017-11-09T08:53:07.654Z,48.50
2017-11-09T08:55:39.556Z,46.77
2017-11-09T08:58:11.429Z,53.73
2017-11-09T09:00:43.347Z,51.90
2017-11-09T09:03:15.222Z,51.40
2017-11-09T09:05:47.133Z,49.80
2017-11-09T09:08:19.022Z,50.60
2017-11-09T09:10:50.929Z,49.80
2017-11-09T09:13:22.804Z,45.50
2017-11-09T09:15:54.733Z,53.90
2017-11-09T09:18:26.610Z,53.53
2017-11-09T09:20:58.514Z,46.50
2017-11-09T09:23:30.394Z,47.47
2017-11-09T09:26:02.297Z,48.77
2017-11-09T09:28:34.937Z,41.90
2017-11-09T09:31:06.832Z,44.90
2017-11-09T09:33:40.393Z,38.57
2017-11-09T09:36:13.437Z,45.90
2017-11-09T09:38:47.237Z,49.10
2017-11-09T09:41:19.904Z,45.07
2017-11-09T09:43:51.785Z,38.60
2017-11-09T09:46:24.477Z,45.87
2017-11-09T09:48:56.361Z,46.50
2017-11-09T09:51:28.270Z,42.03
2017-11-09T09:54:00.919Z,44.13
2017-11-09T09:56:32.819Z,44.80
2017-11-09T09:59:05.461Z,46.30
2017-11-09T10:01:37.386Z,45.93
2017-11-09T10:04:09.261Z,45.43
2017-11-09T10:06:41.149Z,49.27
2017-11-09T10:09:13.030Z,45.57
2017-11-09T10:11:45.681Z,49.80
2017-11-09T10:14:17.556Z,49.60
2017-11-09T10:16:49.466Z,46.93
2017-11-09T10:19:21.342Z,44.47
2017-11-09T10:21:53.246Z,45.73
2017-11-09T10:24:25.890Z,43.97
2017-11-09T10:26:57.805Z,47.80
2017-11-09T10:29:29.694Z,47.70
2017-11-09T10:32:02.040Z,47.50
2017-11-09T10:34:33.956Z,49.00
2017-11-09T10:37:05.882Z,44.67
2017-11-09T10:39:37.774Z,44.53
2017-11-09T10:42:09.698Z,44.13
2017-11-09T10:44:41.587Z,47.17
2017-11-09T10:47:13.482Z,46.30
2017-11-09T10:49:46.137Z,45.87
2017-11-09T10:52:18.049Z,41.33
2017-11-09T10:54:49.930Z,45.63
2017-11-09T10:57:21.826Z,45.47
2017-11-09T10:59:53.705Z,43.30
2017-11-09T11:02:26.401Z,41.97
2017-11-09T11:04:58.304Z,41.03
2017-11-09T11:07:30.230Z,39.13
2017-11-09T11:10:02.118Z,39.57
2017-11-09T11:12:34.245Z,45.43
2017-11-09T11:15:06.120Z,39.47
2017-11-09T11:17:38.032Z,42.93
2017-11-09T11:20:09.897Z,41.93
2017-11-09T11:22:41.800Z,38.70
2017-11-09T11:25:13.684Z,40.67
2017-11-09T11:27:45.593Z,40.30
2017-11-09T11:30:18.234Z,38.20
2017-11-09T11:32:50.144Z,37.93
2017-11-09T11:35:22.034Z,36.10
2017-11-09T11:37:53.930Z,32.50
2017-11-09T11:40:25.810Z,38.97
2017-11-09T11:42:58.493Z,40.03
2017-11-09T11:45:30.381Z,41.63
2017-11-09T11:48:02.278Z,38.53
2017-11-09T11:50:34.150Z,37.23
2017-11-09T11:53:06.087Z,35.93
2017-11-09T11:55:37.993Z,33.60
2017-11-09T11:58:10.677Z,36.73
2017-11-09T12:00:43.339Z,36.43
2017-11-09T12:03:15.240Z,36.63
2017-11-09T12:05:47.130Z,34.30
2017-11-09T12:08:19.041Z,35.13
2017-11-09T12:10:50.930Z,32.03
2017-11-09T12:13:22.821Z,33.93
2017-11-09T12:15:54.836Z,34.10
2017-11-09T12:18:26.728Z,33.90
2017-11-09T12:20:58.625Z,33.03
2017-11-09T12:23:31.297Z,32.60
2017-11-09T12:26:03.181Z,33.50
2017-11-09T12:28:35.861Z,30.53
2017-11-09T12:31:07.734Z,33.43
2017-11-09T12:33:39.644Z,30.97
2017-11-09T12:36:12.353Z,30.83
2017-11-09T12:38:50.059Z,31.47
2017-11-09T12:41:21.937Z,33.03
2017-11-09T12:43:53.846Z,32.77
2017-11-09T12:46:25.740Z,32.93
2017-11-09T12:48:58.406Z,34.40
2017-11-09T12:51:31.050Z,33.33
2017-11-09T12:54:02.957Z,34.50
2017-11-09T12:56:34.837Z,34.00
2017-11-09T12:59:06.728Z,32.73
2017-11-09T13:01:38.605Z,32.83
2017-11-09T13:04:10.512Z,31.77
2017-11-09T13:06:42.390Z,29.63
2017-11-09T13:09:14.301Z,31.20
2017-11-09T13:11:46.952Z,27.37
2017-11-09T13:14:18.861Z,29.70
2017-11-09T13:16:50.746Z,30.93
2017-11-09T13:19:22.667Z,33.13
2017-11-09T13:21:55.314Z,29.70
2017-11-09T13:24:27.225Z,33.57
2017-11-09T13:26:59.104Z,33.90
2017-11-09T13:29:31.039Z,36.17
2017-11-09T13:32:03.047Z,32.87
2017-11-09T13:34:35.782Z,35.90
2017-11-09T13:37:08.413Z,33.20
2017-11-09T13:39:40.317Z,34.20
2017-11-09T13:42:12.953Z,31.23
2017-11-09T13:44:44.864Z,34.77
2017-11-09T13:47:16.740Z,33.20
2017-11-09T13:49:48.649Z,35.93
2017-11-09T13:52:20.525Z,34.97
2017-11-09T13:54:53.430Z,33.83
2017-11-09T13:57:25.303Z,33.73
2017-11-09T13:59:57.202Z,33.00
2017-11-09T14:02:29.080Z,32.47
2017-11-09T14:05:01.749Z,32.87
2017-11-09T14:07:34.456Z,34.60
2017-11-09T14:10:06.378Z,29.97
2017-11-09T14:12:38.258Z,33.40
2017-11-09T14:15:10.169Z,31.47
2017-11-09T14:17:42.058Z,30.03
2017-11-09T14:20:13.952Z,27.33
2017-11-09T14:22:46.594Z,30.97
2017-11-09T14:25:18.484Z,31.43
2017-11-09T14:27:51.129Z,27.60
2017-11-09T14:30:23.801Z,32.53
2017-11-09T14:32:55.681Z,30.40
2017-11-09T14:35:27.592Z,29.93
2017-11-09T14:37:59.477Z,30.10
2017-11-09T14:40:31.444Z,31.63
2017-11-09T14:43:03.330Z,33.27
2017-11-09T14:45:35.240Z,29.40
2017-11-09T14:48:07.122Z,27.70
2017-11-09T14:50:39.038Z,29.87
2017-11-09T14:53:11.678Z,29.23
2017-11-09T14:55:49.421Z,32.63
2017-11-09T14:58:21.307Z,30.63
2017-11-09T15:00:53.213Z,32.47
2017-11-09T15:03:25.081Z,30.10
2017-11-09T15:05:57.738Z,29.33
2017-11-09T15:08:29.609Z,31.03
2017-11-09T15:11:01.630Z,30.37
2017-11-09T15:13:33.500Z,29.00
2017-11-09T15:16:05.471Z,30.07
2017-11-09T15:18:37.367Z,31.93
2017-11-09T15:21:10.037Z,27.70
2017-11-09T15:23:41.914Z,32.77
2017-11-09T15:26:13.820Z,29.70
2017-11-09T15:28:45.697Z,31.83
2017-11-09T15:31:17.587Z,31.93
2017-11-09T15:33:50.257Z,29.53
2017-11-09T15:36:22.180Z,30.50
2017-11-09T15:38:54.069Z,30.10
2017-11-09T15:41:25.957Z,28.30
2017-11-09T15:43:58.603Z,30.27
2017-11-09T15:46:30.522Z,30.40
2017-11-09T15:49:02.406Z,30.73
2017-11-09T15:51:34.289Z,30.83
2017-11-09T15:54:06.162Z,28.37
2017-11-09T15:56:38.816Z,27.17
2017-11-09T15:59:10.722Z,29.83
2017-11-09T16:01:43.390Z,30.17
2017-11-09T16:04:16.038Z,27.17
2017-11-09T16:06:47.941Z,27.73
2017-11-09T16:09:19.817Z,28.70
2017-11-09T16:11:51.838Z,28.30
2017-11-09T16:14:23.712Z,27.23
2017-11-09T16:16:56.398Z,29.40
2017-11-09T16:19:29.037Z,30.07
2017-11-09T16:22:00.941Z,27.67
2017-11-09T16:24:32.817Z,29.67
2017-11-09T16:27:04.721Z,29.33
2017-11-09T16:29:36.616Z,28.13
2017-11-09T16:32:09.285Z,27.57
2017-11-09T16:34:41.936Z,29.83
2017-11-09T16:37:13.821Z,27.90
2017-11-09T16:39:46.452Z,28.33
2017-11-09T16:42:18.369Z,27.87
2017-11-09T16:44:51.950Z,27.33
2017-11-09T16:47:23.840Z,30.23
2017-11-09T16:49:55.720Z,27.23
2017-11-09T16:52:27.633Z,29.20
2017-11-09T16:55:00.269Z,30.90
2017-11-09T16:57:32.172Z,29.60
2017-11-09T17:00:04.837Z,29.77
2017-11-09T17:02:36.752Z,29.43
2017-11-09T17:05:08.626Z,28.40
2017-11-09T17:07:40.518Z,28.10
2017-11-09T17:10:12.407Z,31.53
2017-11-09T17:12:45.072Z,30.53
2017-11-09T17:15:16.948Z,27.03
2017-11-09T17:17:48.861Z,29.37
2017-11-09T17:20:20.739Z,28.03
2017-11-09T17:22:52.662Z,31.20
2017-11-09T17:25:24.550Z,27.83
2017-11-09T17:27:56.450Z,29.60
2017-11-09T17:30:29.091Z,26.57
2017-11-09T17:33:00.985Z,27.77
2017-11-09T17:35:32.858Z,26.80
2017-11-09T17:38:04.782Z,28.30
2017-11-09T17:40:36.669Z,29.43
2017-11-09T17:43:09.350Z,30.27
2017-11-09T17:45:41.993Z,29.33
2017-11-09T17:48:13.904Z,29.00
2017-11-09T17:50:45.785Z,31.37
2017-11-09T17:53:17.693Z,29.27
2017-11-09T17:55:50.334Z,29.93
2017-11-09T17:58:22.293Z,29.37
2017-11-09T18:00:54.168Z,30.03
2017-11-09T18:03:26.080Z,30.73
2017-11-09T18:05:58.234Z,31.45
2017-11-09T18:08:30.916Z,29.97
2017-11-09T18:11:03.556Z,30.60
2017-11-09T18:13:35.486Z,30.73
2017-11-09T18:16:07.366Z,29.83
2017-11-09T18:18:39.281Z,30.23
2017-11-09T18:21:11.162Z,29.30
2017-11-09T18:23:43.081Z,29.73
2017-11-09T18:26:15.730Z,29.73
2017-11-09T18:28:47.625Z,29.07
2017-11-09T18:31:20.277Z,30.07
2017-11-09T18:33:52.174Z,29.20
2017-11-09T18:36:24.821Z,28.63
2017-11-09T18:38:56.876Z,29.40
2017-11-09T18:41:28.752Z,29.23
2017-11-09T18:44:00.662Z,29.20
2017-11-09T18:46:32.550Z,27.87
2017-11-09T18:49:04.464Z,27.30
2017-11-09T18:51:36.378Z,28.37
2017-11-09T18:54:08.278Z,28.57
2017-11-09T18:56:40.165Z,31.27
2017-11-09T18:59:12.061Z,30.10
2017-11-09T19:01:43.937Z,27.27
2017-11-09T19:04:15.833Z,31.00
2017-11-09T19:06:47.727Z,28.53
2017-11-09T19:09:19.620Z,29.40
2017-11-09T19:11:52.272Z,28.40
2017-11-09T19:14:24.178Z,29.47
2017-11-09T19:16:56.073Z,28.93
2017-11-09T19:19:27.985Z,29.33
2017-11-09T19:22:00.634Z,29.50
2017-11-09T19:24:32.545Z,29.73
2017-11-09T19:27:04.430Z,29.97
2017-11-09T19:29:36.341Z,27.23
2017-11-09T19:32:08.980Z,30.07
2017-11-09T19:34:40.870Z,26.37
2017-11-09T19:37:12.761Z,29.03
2017-11-09T19:39:44.675Z,27.80
2017-11-09T19:42:16.558Z,28.23
2017-11-09T19:44:49.239Z,26.83
2017-11-09T19:47:21.878Z,29.87
2017-11-09T19:49:53.788Z,28.77
2017-11-09T19:52:26.680Z,27.60
2017-11-09T19:54:58.596Z,26.50
2017-11-09T19:57:30.475Z,29.77
2017-11-09T20:00:02.386Z,30.37
2017-11-09T20:02:34.275Z,26.53
2017-11-09T20:05:06.175Z,30.53
2017-11-09T20:07:38.826Z,28.40
2017-11-09T20:10:10.729Z,28.37
2017-11-09T20:12:42.637Z,28.60
2017-11-09T20:15:14.530Z,29.27
2017-11-09T20:17:47.169Z,28.80
2017-11-09T20:20:19.094Z,27.63
2017-11-09T20:22:50.974Z,26.20
2017-11-09T20:25:22.891Z,24.83
2017-11-09T20:27:55.533Z,27.50
2017-11-09T20:30:27.430Z,26.57
2017-11-09T20:33:00.070Z,24.97
2017-11-09T20:35:31.963Z,25.57
2017-11-09T20:38:04.600Z,27.73
2017-11-09T20:40:36.505Z,27.23
2017-11-09T20:43:09.149Z,20.87
2017-11-09T20:45:41.065Z,26.87
2017-11-09T20:48:12.945Z,25.97
2017-11-09T20:50:44.837Z,24.20
2017-11-09T20:53:16.714Z,26.73
2017-11-09T20:55:49.373Z,26.47
2017-11-09T20:58:21.265Z,26.27
2017-11-09T21:00:53.189Z,28.13
2017-11-09T21:03:25.058Z,27.50
2017-11-09T21:05:56.973Z,24.30
2017-11-09T21:08:28.853Z,24.90
2017-11-09T21:11:00.765Z,24.77
2017-11-09T21:13:32.643Z,24.83
2017-11-09T21:16:04.533Z,25.90
2017-11-09T21:18:36.404Z,25.40
2017-11-09T21:21:08.302Z,24.97
2017-11-09T21:23:40.946Z,24.87
2017-11-09T21:26:12.837Z,23.63
2017-11-09T21:28:45.485Z,24.13
2017-11-09T21:31:17.401Z,24.87
2017-11-09T21:33:49.293Z,24.50
2017-11-09T21:36:21.304Z,25.70
2017-11-09T21:38:53.940Z,24.47
2017-11-09T21:41:26.011Z,23.90
2017-11-09T21:43:57.881Z,24.63
2017-11-09T21:46:29.793Z,22.77
2017-11-09T21:49:01.670Z,23.60
2017-11-09T21:51:33.566Z,22.33
2017-11-09T21:54:05.446Z,23.23
2017-11-09T21:56:38.121Z,21.43
2017-11-09T21:59:10.761Z,25.10
2017-11-09T22:01:42.649Z,23.13
2017-11-09T22:04:14.534Z,23.40
2017-11-09T22:06:46.446Z,23.77
2017-11-09T22:09:18.321Z,24.57
2017-11-09T22:11:50.222Z,23.90
2017-11-09T22:14:22.093Z,24.27
2017-11-09T22:16:54.001Z,25.17
2017-11-09T22:19:25.884Z,22.97
2017-11-09T22:21:58.556Z,24.53
2017-11-09T22:24:31.193Z,24.03
2017-11-09T22:27:03.116Z,25.07
2017-11-09T22:29:34.989Z,23.93
2017-11-09T22:32:06.930Z,23.70
2017-11-09T22:34:38.824Z,25.17
2017-11-09T22:37:10.735Z,25.63
2017-11-09T22:39:42.619Z,23.13
2017-11-09T22:42:14.529Z,23.97
2017-11-09T22:44:46.413Z,22.60
2017-11-09T22:47:18.321Z,22.23
